createdAt,value
2023-08-01T00:03:38.065Z,29.4
2023-08-01T00:09:32.634Z,29.4
2023-08-01T00:15:24.151Z,29.3
2023-08-01T00:21:27.686Z,29.4
2023-08-01T00:27:18.635Z,29.4
2023-08-01T00:33:15.678Z,29.3
2023-08-01T00:39:07.645Z,29.4
2023-08-01T00:44:43.655Z,29.4
2023-08-01T00:50:35.950Z,29.3
2023-08-01T00:56:27.345Z,29.3
2023-08-01T01:02:20.312Z,29.3
2023-08-01T01:08:13.798Z,29.3
2023-08-01T01:14:05.524Z,29.3
2023-08-01T01:19:57.575Z,29.3
2023-08-01T01:25:55.531Z,29.3
2023-08-01T01:31:48.097Z,29.3
2023-08-01T01:37:24.535Z,29.3
2023-08-01T01:43:00.862Z,29.3
2023-08-01T01:48:53.200Z,29.3
2023-08-01T01:54:44.926Z,29.3
2023-08-01T02:00:36.754Z,29.3
2023-08-01T02:06:28.226Z,29.4
2023-08-01T02:12:19.321Z,29.3
2023-08-01T02:18:11.830Z,29.3
2023-08-01T02:24:06.176Z,29.3
2023-08-01T02:29:57.151Z,29.4
2023-08-01T02:35:50.839Z,29.3
2023-08-01T02:41:42.954Z,29.3
2023-08-01T02:47:34.604Z,29.1
2023-08-01T02:53:25.932Z,29.1
2023-08-01T02:59:17.426Z,29
2023-08-01T03:05:20.308Z,28.9
2023-08-01T03:11:09.523Z,28.9
2023-08-01T03:17:01.434Z,28.8
2023-08-01T03:22:52.620Z,28.8
2023-08-01T03:28:44.221Z,28.8
2023-08-01T03:34:36.339Z,28.7
2023-08-01T03:40:27.274Z,28.6
2023-08-01T03:46:19.121Z,28.6
2023-08-01T03:52:10.918Z,28.6
2023-08-01T03:58:02.895Z,28.5
2023-08-01T04:03:56.000Z,28.5
2023-08-01T04:09:48.069Z,28.4
2023-08-01T04:15:39.177Z,28.4
2023-08-01T04:21:30.233Z,28.4
2023-08-01T04:27:21.589Z,28.4
2023-08-01T04:33:12.901Z,28.4
2023-08-01T04:39:04.297Z,28.4
2023-08-01T04:44:55.724Z,28.4
2023-08-01T04:50:46.490Z,28.4
2023-08-01T04:56:38.594Z,28.3
2023-08-01T05:02:15.174Z,28.3
2023-08-01T05:08:07.020Z,28.3
2023-08-01T05:13:58.289Z,28.3
2023-08-01T05:19:50.108Z,28.3
2023-08-01T05:25:41.515Z,28.3
2023-08-01T05:31:33.113Z,28.3
2023-08-01T05:37:24.850Z,28.3
2023-08-01T05:43:16.147Z,28.3
2023-08-01T05:49:08.615Z,28.3
2023-08-01T05:55:00.731Z,28.3
2023-08-01T06:00:54.791Z,36.1
2023-08-01T06:06:32.588Z,33.4
2023-08-01T06:12:09.050Z,32.9
2023-08-01T06:17:45.483Z,37.6
2023-08-01T06:23:37.911Z,38.4
2023-08-01T06:29:31.961Z,39.1
2023-08-01T06:35:23.415Z,39.8
2023-08-01T06:41:15.436Z,40.4
2023-08-01T06:47:07.883Z,41.1
2023-08-01T06:53:00.505Z,41.3
2023-08-01T06:58:52.367Z,41.8
2023-08-01T07:04:45.101Z,42.4
2023-08-01T07:10:39.745Z,43.2
2023-08-01T07:16:31.854Z,43.9
2023-08-01T07:22:23.490Z,44.6
2023-08-01T07:28:17.534Z,45.3
2023-08-01T07:34:09.670Z,46
2023-08-01T07:40:02.098Z,46.7
2023-08-01T07:45:53.203Z,47.4
2023-08-01T07:51:45.719Z,48.1
2023-08-01T07:57:37.707Z,48.7
2023-08-01T08:03:29.707Z,49.4
2023-08-01T08:09:22.598Z,50.1
2023-08-01T08:15:14.213Z,50.8
2023-08-01T08:21:06.020Z,51.3
2023-08-01T08:37:41.929Z,52.9
2023-08-01T08:43:34.015Z,53.4
2023-08-01T08:49:27.125Z,53.9
2023-08-01T08:55:19.263Z,54.3
2023-08-01T09:01:11.797Z,54.8
2023-08-01T09:07:07.486Z,55.3
2023-08-01T09:12:58.910Z,55.7
2023-08-01T09:18:53.217Z,56.1
2023-08-01T09:24:31.938Z,56.6
2023-08-01T09:30:23.311Z,57
2023-08-01T09:36:17.565Z,57.3
2023-08-01T09:41:54.082Z,57.7
2023-08-01T09:47:48.075Z,58.1
2023-08-01T09:59:17.116Z,59
2023-08-01T10:05:09.769Z,59.4
2023-08-01T10:11:02.386Z,59.9
2023-08-01T10:16:55.303Z,60.3
2023-08-01T10:22:47.632Z,60.7
2023-08-01T10:28:23.740Z,61.1
2023-08-01T10:34:01.435Z,61.4
2023-08-01T10:39:52.686Z,61.8
2023-08-01T10:45:46.858Z,62.2
2023-08-01T10:51:38.365Z,61.9
2023-08-01T10:57:35.088Z,62.5
2023-08-01T11:03:12.013Z,62.9
2023-08-01T11:09:04.116Z,63.1
2023-08-01T11:14:55.661Z,63.5
2023-08-01T11:20:31.473Z,63.8
2023-08-01T11:26:23.336Z,64.1
2023-08-01T11:32:15.770Z,64.3
2023-08-01T11:38:08.585Z,64.5
2023-08-01T11:43:59.851Z,64.8
2023-08-01T11:49:52.038Z,64.9
2023-08-01T11:55:43.610Z,65.1
2023-08-01T12:01:37.367Z,65.3
2023-08-01T12:07:31.237Z,65.5
2023-08-01T12:13:24.824Z,65.7
2023-08-01T12:19:33.084Z,65.8
2023-08-01T12:25:25.309Z,65.9
2023-08-01T12:31:16.836Z,65.9
2023-08-01T12:37:09.436Z,66.1
2023-08-01T12:43:01.222Z,66.1
2023-08-01T12:48:57.599Z,66.1
2023-08-01T12:54:49.296Z,66
2023-08-01T13:00:25.791Z,65.9
2023-08-01T13:06:18.188Z,65.9
2023-08-01T13:12:09.962Z,65.8
2023-08-01T13:18:14.661Z,65.7
2023-08-01T13:24:08.797Z,65.6
2023-08-01T13:30:00.309Z,65.5
2023-08-01T13:35:52.874Z,65
2023-08-01T13:41:43.925Z,64.6
2023-08-01T13:47:49.686Z,64.5
2023-08-01T13:53:44.237Z,64.3
2023-08-01T13:59:35.348Z,63.9
2023-08-01T14:05:34.403Z,63.6
2023-08-01T14:11:26.934Z,63.2
2023-08-01T14:17:18.731Z,62.8
2023-08-01T14:23:10.551Z,62.4
2023-08-01T14:29:01.565Z,62.1
2023-08-01T14:34:54.224Z,61.6
2023-08-01T14:41:11.691Z,61
2023-08-01T14:47:38.279Z,60.4
2023-08-01T14:53:33.951Z,59.9
2023-08-01T14:59:39.936Z,59.4
2023-08-01T15:05:34.769Z,58.9
2023-08-01T15:11:12.568Z,58.3
2023-08-01T15:16:48.887Z,57.6
2023-08-01T15:22:40.596Z,57
2023-08-01T15:28:32.577Z,56.3
2023-08-01T15:34:23.789Z,53.1
2023-08-01T15:40:15.173Z,50.8
2023-08-01T15:46:09.981Z,48.9
2023-08-01T15:52:02.121Z,47.4
2023-08-01T15:57:55.531Z,46.3
2023-08-01T16:03:47.101Z,45.4
2023-08-01T16:09:38.899Z,44.7
2023-08-01T16:15:30.319Z,44.1
2023-08-01T16:21:08.689Z,43.6
2023-08-01T16:26:45.616Z,43.1
2023-08-01T16:32:37.581Z,42.7
2023-08-01T16:38:15.285Z,42.3
2023-08-01T16:44:08.192Z,42
2023-08-01T16:50:27.891Z,41.7
2023-08-01T16:56:03.287Z,41.4
2023-08-01T17:01:54.473Z,40.8
2023-08-01T17:07:47.709Z,40.1
2023-08-01T17:13:40.756Z,39.4
2023-08-01T17:19:32.227Z,39
2023-08-01T17:25:24.218Z,38.6
2023-08-01T17:31:16.280Z,38.4
2023-08-01T17:37:08.393Z,38.1
2023-08-01T17:43:00.033Z,38
2023-08-01T17:48:53.473Z,37.8
2023-08-01T17:54:45.515Z,37.6
2023-08-01T18:00:06.976Z,37.6
2023-08-01T18:05:46.674Z,37.4
2023-08-01T18:11:22.617Z,37.3
2023-08-01T18:17:00.906Z,37.3
2023-08-01T18:22:37.025Z,37.1
2023-08-01T18:28:28.814Z,37.1
2023-08-01T18:34:20.445Z,37
2023-08-01T18:40:15.584Z,36.9
2023-08-01T18:46:07.272Z,36.9
2023-08-01T18:52:00.248Z,36.8
2023-08-01T18:57:37.120Z,36.8
2023-08-01T19:03:28.666Z,36.7
2023-08-01T19:09:26.244Z,36.6
2023-08-01T19:15:19.611Z,36.2
2023-08-01T19:21:11.268Z,35.5
2023-08-01T19:27:03.784Z,34.9
2023-08-01T19:32:57.064Z,34.4
2023-08-01T19:38:48.327Z,33.9
2023-08-01T19:44:39.367Z,33.6
2023-08-01T19:50:17.733Z,33.4
2023-08-01T19:56:09.118Z,33.2
2023-08-01T20:01:45.994Z,33
2023-08-01T20:07:41.304Z,32.8
2023-08-01T20:13:32.293Z,32.7
2023-08-01T20:19:08.463Z,32.6
2023-08-01T20:24:59.644Z,32.4
2023-08-01T20:30:51.317Z,32.3
2023-08-01T20:36:43.166Z,32.3
2023-08-01T20:42:34.350Z,32.2
2023-08-01T20:48:29.430Z,32.1
2023-08-01T20:54:20.988Z,32.1
2023-08-01T21:00:12.344Z,32
2023-08-01T21:06:04.408Z,31.9
2023-08-01T21:12:11.406Z,31.9
2023-08-01T21:17:48.317Z,31.8
2023-08-01T21:23:40.437Z,31.8
2023-08-01T21:29:16.913Z,31.8
2023-08-01T21:34:54.731Z,31.7
2023-08-01T21:40:46.060Z,31.7
2023-08-01T21:46:38.281Z,31.6
2023-08-01T21:52:30.325Z,31.6
2023-08-01T21:58:22.622Z,31.6
2023-08-01T22:04:15.515Z,31.6
2023-08-01T22:10:07.864Z,31.5
2023-08-01T22:15:45.078Z,31.5
2023-08-01T22:21:22.414Z,31.5
2023-08-01T22:27:14.805Z,31.4
2023-08-01T22:33:06.819Z,31.4
2023-08-01T22:38:58.506Z,31.4
2023-08-01T22:44:34.400Z,31.4
2023-08-01T22:50:39.362Z,31.4
2023-08-01T22:56:16.051Z,31.4
2023-08-01T23:02:07.628Z,31.4
2023-08-01T23:07:44.824Z,31.4
2023-08-01T23:13:34.660Z,31.4
2023-08-01T23:19:11.298Z,31.3
2023-08-01T23:24:48.078Z,31.3
2023-08-01T23:30:40.521Z,31.4
2023-08-01T23:36:17.004Z,31.4
2023-08-01T23:42:08.433Z,31.3
2023-08-01T23:48:01.170Z,31.3
2023-08-01T23:53:52.463Z,31.3
2023-08-01T23:59:29.630Z,31.3
